createdAt,value
2022-09-12T00:01:11.093Z,16.57
2022-09-12T00:03:38.960Z,16.50
2022-09-12T00:06:22.883Z,16.90
2022-09-12T00:08:51.332Z,17.03
2022-09-12T00:11:18.399Z,16.80
2022-09-12T00:13:45.224Z,17.23
2022-09-12T00:16:21.984Z,15.70
2022-09-12T00:18:49.357Z,16.63
2022-09-12T00:21:17.578Z,16.47
2022-09-12T00:23:45.629Z,16.17
2022-09-12T00:26:13.557Z,15.67
2022-09-12T00:28:41.949Z,16.57
2022-09-12T00:31:14.442Z,15.40
2022-09-12T00:33:42.956Z,16.23
2022-09-12T00:36:12.858Z,16.10
2022-09-12T00:38:42.157Z,15.27
2022-09-12T00:41:20.532Z,15.43
2022-09-12T00:43:51.892Z,15.70
2022-09-12T00:46:36.268Z,16.03
2022-09-12T00:49:08.079Z,16.10
2022-09-12T00:51:37.833Z,15.90
2022-09-12T00:54:09.933Z,16.47
2022-09-12T00:56:41.157Z,15.73
2022-09-12T00:59:31.509Z,16.07
2022-09-12T01:01:58.665Z,16.60
2022-09-12T01:04:28.074Z,16.67
2022-09-12T01:06:58.680Z,16.27
2022-09-12T01:09:25.846Z,16.90
2022-09-12T01:11:53.705Z,16.97
2022-09-12T01:14:21.004Z,17.03
2022-09-12T01:16:49.945Z,18.20
2022-09-12T01:19:54.164Z,18.10
2022-09-12T01:22:49.989Z,18.33
2022-09-12T01:25:38.008Z,18.97
2022-09-12T01:28:39.596Z,19.63
2022-09-12T01:31:13.625Z,18.90
2022-09-12T01:33:56.621Z,19.63
2022-09-12T01:37:04.886Z,19.73
2022-09-12T01:39:48.766Z,19.47
2022-09-12T01:42:47.056Z,19.57
2022-09-12T01:45:23.855Z,20.37
2022-09-12T01:47:59.768Z,20.30
2022-09-12T01:50:32.309Z,19.13
2022-09-12T01:53:12.949Z,20.80
2022-09-12T01:55:52.309Z,20.63
2022-09-12T01:58:27.113Z,20.03
2022-09-12T02:01:09.323Z,19.53
2022-09-12T02:04:09.094Z,18.40
2022-09-12T02:06:52.400Z,19.73
2022-09-12T02:09:28.411Z,19.60
2022-09-12T02:11:59.044Z,19.23
2022-09-12T02:14:32.513Z,19.13
2022-09-12T02:17:07.480Z,19.70
2022-09-12T02:19:39.387Z,19.50
2022-09-12T02:22:07.931Z,19.90
2022-09-12T02:24:42.331Z,19.80
2022-09-12T02:27:28.106Z,19.10
2022-09-12T02:29:55.169Z,20.23
2022-09-12T02:32:36.405Z,19.17
2022-09-12T02:35:14.577Z,18.93
2022-09-12T02:37:53.218Z,19.37
2022-09-12T02:40:20.257Z,19.37
2022-09-12T02:42:47.150Z,18.20
2022-09-12T02:45:14.055Z,19.13
2022-09-12T02:47:56.385Z,19.40
2022-09-12T02:50:23.722Z,18.40
2022-09-12T02:52:53.793Z,18.90
2022-09-12T02:55:20.812Z,18.83
2022-09-12T02:57:47.556Z,18.50
2022-09-12T03:00:14.804Z,18.03
2022-09-12T03:03:16.998Z,18.33
2022-09-12T03:05:49.943Z,17.93
2022-09-12T03:08:38.797Z,17.33
2022-09-12T03:11:32.529Z,17.30
2022-09-12T03:14:17.245Z,17.30
2022-09-12T03:17:04.453Z,17.47
2022-09-12T03:19:43.141Z,16.70
2022-09-12T03:22:32.886Z,17.13
2022-09-12T03:25:15.768Z,17.23
2022-09-12T03:28:07.403Z,17.00
2022-09-12T03:30:46.083Z,17.37
2022-09-12T03:33:23.373Z,17.40
2022-09-12T03:35:51.668Z,16.37
2022-09-12T03:38:19.141Z,16.90
2022-09-12T03:40:49.316Z,16.20
2022-09-12T03:43:18.321Z,16.57
2022-09-12T03:45:45.113Z,16.30
2022-09-12T03:48:12.113Z,17.20
2022-09-12T03:50:38.869Z,17.03
2022-09-12T03:53:05.683Z,15.63
2022-09-12T03:55:32.578Z,16.00
2022-09-12T03:57:59.537Z,15.83
2022-09-12T04:00:26.331Z,15.40
2022-09-12T04:02:57.291Z,16.50
2022-09-12T04:05:25.253Z,15.67
2022-09-12T04:07:52.666Z,15.67
2022-09-12T04:10:19.493Z,15.87
2022-09-12T04:12:46.260Z,16.00
2022-09-12T04:15:13.252Z,15.53
2022-09-12T04:17:40.022Z,15.07
2022-09-12T04:20:07.416Z,15.13
2022-09-12T04:22:34.237Z,15.30
2022-09-12T04:25:01.180Z,14.77
2022-09-12T04:27:28.288Z,14.90
2022-09-12T04:29:56.410Z,14.70
2022-09-12T04:32:23.328Z,14.77
2022-09-12T04:34:50.222Z,13.73
2022-09-12T04:37:17.064Z,14.50
2022-09-12T04:39:43.988Z,14.27
2022-09-12T04:42:10.803Z,14.20
2022-09-12T04:44:37.712Z,13.87
2022-09-12T04:47:04.576Z,14.57
2022-09-12T04:49:31.673Z,14.73
2022-09-12T04:51:58.590Z,14.60
2022-09-12T04:54:26.044Z,14.87
2022-09-12T04:56:54.830Z,14.10
2022-09-12T04:59:22.456Z,13.60
2022-09-12T05:01:49.623Z,14.47
2022-09-12T05:04:16.611Z,14.10
2022-09-12T05:06:44.217Z,13.70
2022-09-12T05:09:12.705Z,13.83
2022-09-12T05:12:03.328Z,14.20
2022-09-12T05:14:28.450Z,13.77
2022-09-12T05:16:59.783Z,13.53
2022-09-12T05:19:28.148Z,13.67
2022-09-12T05:21:54.896Z,13.70
2022-09-12T05:24:22.235Z,13.43
2022-09-12T05:26:48.984Z,13.73
2022-09-12T05:29:16.409Z,14.17
2022-09-12T05:31:43.346Z,13.60
2022-09-12T05:34:10.419Z,13.47
2022-09-12T05:36:37.652Z,14.07
2022-09-12T05:39:04.867Z,14.27
2022-09-12T05:41:34.332Z,14.40
2022-09-12T05:44:03.616Z,13.93
2022-09-12T05:46:32.421Z,13.70
2022-09-12T05:49:04.801Z,13.47
2022-09-12T05:51:38.294Z,13.30
2022-09-12T05:54:06.576Z,13.03
2022-09-12T05:56:37.117Z,13.70
2022-09-12T05:59:06.556Z,13.47
2022-09-12T06:01:35.220Z,13.13
2022-09-12T06:04:04.656Z,13.20
2022-09-12T06:06:33.239Z,13.40
2022-09-12T06:09:01.907Z,13.27
2022-09-12T06:11:31.582Z,14.00
2022-09-12T06:13:59.361Z,13.63
2022-09-12T06:16:29.186Z,13.50
2022-09-12T06:19:00.936Z,13.60
2022-09-12T06:21:28.939Z,13.27
2022-09-12T06:23:55.889Z,13.37
2022-09-12T06:26:25.635Z,13.43
2022-09-12T06:28:54.437Z,13.60
2022-09-12T06:31:25.255Z,13.70
2022-09-12T06:33:53.822Z,13.33
2022-09-12T06:36:32.774Z,13.37
2022-09-12T06:39:06.280Z,13.53
2022-09-12T06:41:33.665Z,13.17
2022-09-12T06:44:01.824Z,12.90
2022-09-12T06:46:29.239Z,13.50
2022-09-12T06:48:56.965Z,13.10
2022-09-12T06:51:24.615Z,12.97
2022-09-12T06:53:52.351Z,12.73
2022-09-12T06:56:21.372Z,12.50
2022-09-12T06:58:49.955Z,12.43
2022-09-12T07:01:19.544Z,12.87
2022-09-12T07:03:52.388Z,13.00
2022-09-12T07:06:21.968Z,12.70
2022-09-12T07:08:48.923Z,12.77
2022-09-12T07:11:20.173Z,12.40
2022-09-12T07:13:49.827Z,13.00
2022-09-12T07:16:19.608Z,13.10
2022-09-12T07:18:58.667Z,13.33
2022-09-12T07:21:25.821Z,13.07
2022-09-12T07:23:55.396Z,13.13
2022-09-12T07:26:22.243Z,12.77
2022-09-12T07:28:54.174Z,12.80
2022-09-12T07:31:23.773Z,13.13
2022-09-12T07:33:54.641Z,12.97
2022-09-12T07:36:24.689Z,12.87
2022-09-12T07:38:57.528Z,12.40
2022-09-12T07:41:30.034Z,12.87
2022-09-12T07:43:59.103Z,12.80
2022-09-12T07:46:27.523Z,13.37
2022-09-12T07:48:56.804Z,13.13
2022-09-12T07:51:25.274Z,13.57
2022-09-12T07:53:52.197Z,13.20
2022-09-12T07:56:20.034Z,13.10
2022-09-12T07:58:47.677Z,13.47
2022-09-12T08:01:19.131Z,13.53
2022-09-12T08:03:48.237Z,13.23
2022-09-12T08:06:20.320Z,13.50
2022-09-12T08:08:48.436Z,13.30
2022-09-12T08:11:17.156Z,13.43
2022-09-12T08:13:44.930Z,13.10
2022-09-12T08:16:21.127Z,12.80
2022-09-12T08:18:48.723Z,13.10
2022-09-12T08:21:18.307Z,13.00
2022-09-12T08:23:45.459Z,13.30
2022-09-12T08:26:13.136Z,13.47
2022-09-12T08:28:41.097Z,13.23
2022-09-12T08:31:12.002Z,13.10
2022-09-12T08:33:39.096Z,13.40
2022-09-12T08:36:11.004Z,13.13
2022-09-12T08:38:39.725Z,13.17
2022-09-12T08:41:18.642Z,12.90
2022-09-12T08:43:52.073Z,12.60
2022-09-12T08:46:29.052Z,12.73
2022-09-12T08:48:58.473Z,12.63
2022-09-12T08:51:26.212Z,12.07
2022-09-12T08:53:56.449Z,13.37
2022-09-12T08:56:28.435Z,13.50
2022-09-12T08:58:57.877Z,23.10
2022-09-12T09:01:32.810Z,15.97
2022-09-12T09:04:14.448Z,13.60
2022-09-12T09:07:01.532Z,14.13
2022-09-12T09:09:43.425Z,13.37
2022-09-12T09:12:21.965Z,13.70
2022-09-12T09:14:56.567Z,13.93
2022-09-12T09:17:30.077Z,13.17
2022-09-12T09:20:12.421Z,12.97
2022-09-12T09:22:42.219Z,12.50
2022-09-12T09:25:23.037Z,12.87
2022-09-12T09:28:06.064Z,12.90
2022-09-12T09:30:36.062Z,12.53
2022-09-12T09:33:05.287Z,12.87
2022-09-12T09:35:38.951Z,12.80
2022-09-12T09:38:15.396Z,12.57
2022-09-12T09:40:50.008Z,12.63
2022-09-12T09:43:28.948Z,12.60
2022-09-12T09:45:57.904Z,12.63
2022-09-12T09:48:33.554Z,13.03
2022-09-12T09:51:03.177Z,12.80
2022-09-12T09:53:51.869Z,12.50
2022-09-12T09:56:27.875Z,12.80
2022-09-12T09:58:54.918Z,12.93
2022-09-12T10:01:22.293Z,12.93
2022-09-12T10:03:54.273Z,12.97
2022-09-12T10:06:21.021Z,12.50
2022-09-12T10:08:49.579Z,12.90
2022-09-12T10:11:16.368Z,12.63
2022-09-12T10:14:04.610Z,12.10
2022-09-12T10:16:48.316Z,12.33
2022-09-12T10:19:26.715Z,12.77
2022-09-12T10:21:56.967Z,12.70
2022-09-12T10:24:47.198Z,12.43
2022-09-12T10:27:20.630Z,12.80
2022-09-12T10:30:14.613Z,13.43
2022-09-12T10:32:45.095Z,12.43
2022-09-12T10:35:24.011Z,12.53
2022-09-12T10:38:02.414Z,12.27
2022-09-12T10:40:37.774Z,12.80
2022-09-12T10:43:17.799Z,12.47
2022-09-12T10:45:44.705Z,12.70
2022-09-12T10:48:31.988Z,12.37
2022-09-12T10:51:00.148Z,12.53
2022-09-12T10:53:33.620Z,12.80
2022-09-12T10:56:28.031Z,12.53
2022-09-12T10:59:21.735Z,12.07
2022-09-12T11:02:00.400Z,12.30
2022-09-12T11:04:58.114Z,11.87
2022-09-12T11:07:46.879Z,11.80
2022-09-12T11:10:43.766Z,11.70
2022-09-12T11:13:25.545Z,12.10
2022-09-12T11:16:05.911Z,12.00
2022-09-12T11:19:03.758Z,11.80
2022-09-12T11:21:30.628Z,12.20
2022-09-12T11:23:57.366Z,11.70
2022-09-12T11:26:34.242Z,11.80
2022-09-12T11:29:01.002Z,11.90
2022-09-12T11:31:50.397Z,12.07
2022-09-12T11:34:36.872Z,11.47
2022-09-12T11:37:10.433Z,11.77
2022-09-12T11:39:44.813Z,11.90
2022-09-12T11:42:18.282Z,12.03
2022-09-12T11:44:50.121Z,11.67
2022-09-12T11:47:18.727Z,12.07
2022-09-12T11:49:49.984Z,11.60
2022-09-12T11:52:27.055Z,11.63
2022-09-12T11:55:03.879Z,11.97
2022-09-12T11:57:53.098Z,11.17
2022-09-12T12:00:24.649Z,10.83
2022-09-12T12:03:00.775Z,11.37
2022-09-12T12:05:47.880Z,11.53
2022-09-12T12:08:14.840Z,11.40
2022-09-12T12:10:44.279Z,11.83
2022-09-12T12:13:20.037Z,11.57
2022-09-12T12:16:11.526Z,11.63
2022-09-12T12:18:40.171Z,11.43
2022-09-12T12:21:34.737Z,11.70
2022-09-12T12:24:07.508Z,11.67
2022-09-12T12:26:40.676Z,11.27
2022-09-12T12:29:13.415Z,11.37
2022-09-12T12:31:59.136Z,11.30
2022-09-12T12:34:30.887Z,11.63
2022-09-12T12:36:59.205Z,11.40
2022-09-12T12:39:32.123Z,11.20
2022-09-12T12:42:03.049Z,11.37
2022-09-12T12:44:45.179Z,11.57
2022-09-12T12:47:20.742Z,11.40
2022-09-12T12:50:04.445Z,11.77
2022-09-12T12:52:40.724Z,11.73
2022-09-12T12:55:17.202Z,11.47
2022-09-12T12:57:51.578Z,11.77
2022-09-12T13:00:21.388Z,12.07
2022-09-12T13:02:58.057Z,12.23
2022-09-12T13:05:27.224Z,11.80
2022-09-12T13:08:03.726Z,11.73
2022-09-12T13:10:31.288Z,12.10
2022-09-12T13:13:02.046Z,11.93
2022-09-12T13:15:50.919Z,11.80
2022-09-12T13:18:25.462Z,11.80
2022-09-12T13:20:59.888Z,12.20
2022-09-12T13:23:31.646Z,11.87
2022-09-12T13:26:00.933Z,12.10
2022-09-12T13:28:31.292Z,12.00
2022-09-12T13:30:58.560Z,12.20
2022-09-12T13:33:34.309Z,12.10
2022-09-12T13:36:29.205Z,12.27
2022-09-12T13:39:20.209Z,12.30
2022-09-12T13:41:56.225Z,11.83
2022-09-12T13:44:24.720Z,11.83
2022-09-12T13:46:52.476Z,11.83
2022-09-12T13:49:37.632Z,12.40
2022-09-12T13:52:24.767Z,12.33
2022-09-12T13:54:55.006Z,12.40
2022-09-12T13:57:31.595Z,12.33
2022-09-12T13:59:59.991Z,11.77
2022-09-12T14:02:28.890Z,12.30
2022-09-12T14:05:11.485Z,12.40
2022-09-12T14:07:54.473Z,11.90
2022-09-12T14:10:24.086Z,12.20
2022-09-12T14:12:52.860Z,12.10
2022-09-12T14:15:26.575Z,12.10
2022-09-12T14:17:56.606Z,12.07
2022-09-12T14:20:24.381Z,12.20
2022-09-12T14:22:52.581Z,12.10
2022-09-12T14:25:25.568Z,12.27
2022-09-12T14:27:54.958Z,12.00
2022-09-12T14:30:31.981Z,11.37
2022-09-12T14:33:22.259Z,11.43
2022-09-12T14:35:52.017Z,11.30
2022-09-12T14:38:18.960Z,11.73
2022-09-12T14:40:59.950Z,11.67
2022-09-12T14:43:34.060Z,11.40
2022-09-12T14:46:07.854Z,11.47
2022-09-12T14:48:46.796Z,11.17
2022-09-12T14:51:26.112Z,11.27
2022-09-12T14:53:53.234Z,11.40
2022-09-12T14:56:37.045Z,12.10
2022-09-12T14:59:30.972Z,12.07
2022-09-12T15:02:22.608Z,11.20
2022-09-12T15:04:52.545Z,11.40
2022-09-12T15:07:29.756Z,11.20
2022-09-12T15:09:59.037Z,11.60
2022-09-12T15:12:26.453Z,11.40
2022-09-12T15:14:54.239Z,11.80
2022-09-12T15:17:21.031Z,11.63
2022-09-12T15:19:48.130Z,11.70
2022-09-12T15:22:15.156Z,11.93
2022-09-12T15:24:42.013Z,11.80
2022-09-12T15:27:11.974Z,11.70
2022-09-12T15:29:39.610Z,12.13
2022-09-12T15:32:06.881Z,13.10
2022-09-12T15:34:33.896Z,11.70
2022-09-12T15:37:00.950Z,12.37
2022-09-12T15:39:27.903Z,12.40
2022-09-12T15:41:54.777Z,11.50
2022-09-12T15:44:23.802Z,11.67
2022-09-12T15:46:50.633Z,12.47
2022-09-12T15:49:17.572Z,11.57
2022-09-12T15:51:44.445Z,11.37
2022-09-12T15:54:15.179Z,11.63
2022-09-12T15:56:42.096Z,12.03
2022-09-12T15:59:09.099Z,11.87
2022-09-12T16:01:35.990Z,11.83
2022-09-12T16:04:03.881Z,12.00
2022-09-12T16:06:37.309Z,11.27
2022-09-12T16:09:04.493Z,12.07
2022-09-12T16:11:31.280Z,11.47
2022-09-12T16:13:58.369Z,11.63
2022-09-12T16:16:25.361Z,11.80
2022-09-12T16:18:52.324Z,11.50
2022-09-12T16:21:19.184Z,11.63
2022-09-12T16:23:47.415Z,11.57
2022-09-12T16:26:15.040Z,12.03
2022-09-12T16:28:42.444Z,11.60
2022-09-12T16:31:12.901Z,11.40
2022-09-12T16:33:40.701Z,12.03
2022-09-12T16:36:12.981Z,11.73
2022-09-12T16:38:51.192Z,11.50
2022-09-12T16:41:20.037Z,11.90
2022-09-12T16:43:47.628Z,12.00
2022-09-12T16:46:19.075Z,12.23
2022-09-12T16:48:52.670Z,12.47
2022-09-12T16:51:23.005Z,11.60
2022-09-12T16:53:50.487Z,11.53
2022-09-12T16:56:17.615Z,11.70
2022-09-12T16:58:45.310Z,12.00
2022-09-12T17:01:23.842Z,11.30
2022-09-12T17:03:55.277Z,11.33
2022-09-12T17:06:22.463Z,11.33
2022-09-12T17:08:51.060Z,11.47
2022-09-12T17:11:20.629Z,11.67
2022-09-12T17:14:06.467Z,11.40
2022-09-12T17:16:39.570Z,11.97
2022-09-12T17:19:09.204Z,11.93
2022-09-12T17:21:36.567Z,11.20
2022-09-12T17:24:04.818Z,11.33
2022-09-12T17:26:31.729Z,10.87
2022-09-12T17:28:58.707Z,11.83
2022-09-12T17:31:26.831Z,11.27
2022-09-12T17:33:58.441Z,12.10
2022-09-12T17:36:26.666Z,11.87
2022-09-12T17:38:54.276Z,12.10
2022-09-12T17:41:27.582Z,11.27
2022-09-12T17:43:57.250Z,11.83
2022-09-12T17:46:38.781Z,11.17
2022-09-12T17:49:08.181Z,11.77
2022-09-12T17:51:35.618Z,12.30
2022-09-12T17:54:06.115Z,11.87
2022-09-12T17:56:34.619Z,12.30
2022-09-12T17:59:02.020Z,12.00
2022-09-12T18:01:48.187Z,11.37
2022-09-12T18:04:15.804Z,11.33
2022-09-12T18:06:47.992Z,11.93
2022-09-12T18:09:18.008Z,12.20
2022-09-12T18:11:45.157Z,11.17
2022-09-12T18:14:14.236Z,11.80
2022-09-12T18:16:43.196Z,12.20
2022-09-12T18:19:11.247Z,11.50
2022-09-12T18:21:38.492Z,11.73
2022-09-12T18:24:05.769Z,11.23
2022-09-12T18:26:33.202Z,12.10
2022-09-12T18:29:00.089Z,11.10
2022-09-12T18:31:29.726Z,11.80
2022-09-12T18:33:57.288Z,11.27
2022-09-12T18:36:24.162Z,12.00
2022-09-12T18:38:51.197Z,12.00
2022-09-12T18:41:22.797Z,12.13
2022-09-12T18:43:53.380Z,11.90
2022-09-12T18:46:20.314Z,12.30
2022-09-12T18:48:47.499Z,11.73
2022-09-12T18:51:17.991Z,11.90
2022-09-12T18:53:57.001Z,11.23
2022-09-12T18:56:26.475Z,12.10
2022-09-12T18:58:56.508Z,11.70
2022-09-12T19:01:29.266Z,11.60
2022-09-12T19:03:56.904Z,11.20
2022-09-12T19:06:28.619Z,11.97
2022-09-12T19:08:57.408Z,11.80
2022-09-12T19:11:26.114Z,11.37
2022-09-12T19:13:54.313Z,12.23
2022-09-12T19:16:24.001Z,11.50
2022-09-12T19:18:52.424Z,12.13
2022-09-12T19:21:24.638Z,13.00
2022-09-12T19:23:53.904Z,12.23
2022-09-12T19:26:21.295Z,11.97
2022-09-12T19:28:48.556Z,12.67
2022-09-12T19:31:19.053Z,12.10
2022-09-12T19:33:46.990Z,12.03
2022-09-12T19:36:40.799Z,11.83
2022-09-12T19:39:04.103Z,11.23
2022-09-12T19:41:31.205Z,12.03
2022-09-12T19:43:58.321Z,12.60
2022-09-12T19:46:26.761Z,12.07
2022-09-12T19:48:54.026Z,11.90
2022-09-12T19:51:22.183Z,11.80
2022-09-12T19:53:50.389Z,11.23
2022-09-12T19:56:17.326Z,11.90
2022-09-12T19:58:46.758Z,11.60
2022-09-12T20:01:18.907Z,12.77
2022-09-12T20:03:46.514Z,11.53
2022-09-12T20:06:17.738Z,11.33
2022-09-12T20:08:45.772Z,11.67
2022-09-12T20:11:16.856Z,13.03
2022-09-12T20:13:44.988Z,12.33
2022-09-12T20:16:21.399Z,12.00
2022-09-12T20:18:56.707Z,11.77
2022-09-12T20:21:25.737Z,12.53
2022-09-12T20:23:52.906Z,12.00
2022-09-12T20:26:20.501Z,12.30
2022-09-12T20:28:47.865Z,11.63
2022-09-12T20:31:16.127Z,11.97
2022-09-12T20:33:44.684Z,11.23
2022-09-12T20:36:16.325Z,11.63
2022-09-12T20:38:50.635Z,11.87
2022-09-12T20:41:18.966Z,11.27
2022-09-12T20:43:49.125Z,11.80
2022-09-12T20:46:20.992Z,12.97
2022-09-12T20:48:49.354Z,12.00
2022-09-12T20:51:16.764Z,12.57
2022-09-12T20:53:43.711Z,12.33
2022-09-12T20:56:10.485Z,12.27
2022-09-12T20:58:41.693Z,11.73
2022-09-12T21:01:11.821Z,11.87
2022-09-12T21:03:39.640Z,12.67
2022-09-12T21:06:07.649Z,11.77
2022-09-12T21:08:35.645Z,11.97
2022-09-12T21:11:02.501Z,12.33
2022-09-12T21:13:29.288Z,11.97
2022-09-12T21:16:16.842Z,12.27
2022-09-12T21:18:44.644Z,11.60
2022-09-12T21:21:13.162Z,12.00
2022-09-12T21:23:40.212Z,11.77
2022-09-12T21:26:07.891Z,12.70
2022-09-12T21:28:34.817Z,12.10
2022-09-12T21:31:01.734Z,11.47
2022-09-12T21:33:28.670Z,11.97
2022-09-12T21:35:55.507Z,12.27
2022-09-12T21:38:22.416Z,11.97
2022-09-12T21:40:49.512Z,12.03
2022-09-12T21:43:16.432Z,12.20
2022-09-12T21:45:43.246Z,11.93
2022-09-12T21:48:10.212Z,12.00
2022-09-12T21:50:36.963Z,12.10
2022-09-12T21:53:03.969Z,12.03
2022-09-12T21:55:31.210Z,12.60
2022-09-12T21:57:58.052Z,12.90
2022-09-12T22:00:24.955Z,12.83
2022-09-12T22:02:51.816Z,13.00
2022-09-12T22:05:19.630Z,12.90
2022-09-12T22:07:46.764Z,12.97
2022-09-12T22:10:13.569Z,12.63
2022-09-12T22:12:45.361Z,12.80
2022-09-12T22:15:38.819Z,12.67
2022-09-12T22:18:00.638Z,12.60
2022-09-12T22:20:27.505Z,12.73
2022-09-12T22:23:12.783Z,13.00
2022-09-12T22:25:39.931Z,12.60
2022-09-12T22:28:07.108Z,12.93
2022-09-12T22:30:33.979Z,12.67
2022-09-12T22:33:00.763Z,12.80
2022-09-12T22:35:27.722Z,12.13
2022-09-12T22:37:54.481Z,13.40
2022-09-12T22:40:21.415Z,13.10
2022-09-12T22:42:52.024Z,13.13
2022-09-12T22:45:19.296Z,13.40
2022-09-12T22:47:46.365Z,12.50
2022-09-12T22:50:13.257Z,12.70
2022-09-12T22:52:40.492Z,12.60
2022-09-12T22:55:07.837Z,12.60
2022-09-12T22:57:34.824Z,11.63
2022-09-12T23:00:02.212Z,12.27
2022-09-12T23:02:29.693Z,11.73
2022-09-12T23:04:56.544Z,12.60
2022-09-12T23:07:23.342Z,12.60
2022-09-12T23:09:50.164Z,12.30
2022-09-12T23:12:17.118Z,12.43
2022-09-12T23:14:44.123Z,12.67
2022-09-12T23:17:10.977Z,12.70
2022-09-12T23:19:37.864Z,12.57
2022-09-12T23:22:04.715Z,12.80
2022-09-12T23:24:31.592Z,12.73
2022-09-12T23:26:59.604Z,12.10
2022-09-12T23:29:27.208Z,12.43
2022-09-12T23:31:53.998Z,12.07
2022-09-12T23:34:20.902Z,12.37
2022-09-12T23:36:47.689Z,12.10
2022-09-12T23:39:14.494Z,12.07
2022-09-12T23:41:41.285Z,12.20
2022-09-12T23:44:08.139Z,12.20
2022-09-12T23:46:34.948Z,11.40
2022-09-12T23:49:01.784Z,12.30
2022-09-12T23:51:28.547Z,12.13
2022-09-12T23:53:55.437Z,12.20
2022-09-12T23:56:22.291Z,12.43
2022-09-12T23:58:49.301Z,12.27
